Flight Track Log - Related Links

Times and Time Zones

All times are in EDT time to prevent confusion due to time zone crossing. See the EJA951 flight status page for this flight to view local times or setup timezone preferences in your user account.

Time Position Orientation Groundspeed Altitude Reporting Facility
EDT Latitude Longitude Course Direction KTS MPH feet Rate Location/Type
Fri 11:27:05 AM 41.0333 -73.7167 201° Southwest 190 219 2,700  Level New York TRACON
Fri 11:27:59 AM 41.0500 -73.7667 294° West 189 217 3,600 1,900 Climbing New York TRACON
Fri 11:29:05 AM 41.0667 -73.8500 285° West 241 277 6,500 2,628 Climbing New York TRACON
Fri 11:30:00 AM 41.0167 -73.9000 217° Southwest 240 276 8,900 2,400 Climbing New York TRACON
Fri 11:31:05 AM 40.9333 -73.9500 204° Southwest 313 360 11,300 1,536 Climbing New York TRACON
Fri 11:32:00 AM 40.3570 -74.0548 201° Southwest  Level FlightAware Approximate
Fri 11:32:05 AM 40.8500 -74.0000 204° Southwest 383 441 12,100  Level New York TRACON
Fri 11:33:05 AM 40.7500 -74.0500 201° Southwest 352 405 12,100  Level New York TRACON
Fri 11:34:05 AM 40.6667 -74.0833 197° South 303 349 12,100  Level New York TRACON
Fri 11:35:00 AM 40.6000 -74.1167 201° Southwest 301 346 12,100 1,043 Level New York TRACON
Fri 11:36:00 AM 40.5167 -74.1500 197° South 305 351 14,100 2,118 Climbing New York TRACON
Fri 11:36:59 AM 40.4333 -74.1833 197° South 332 382 16,300 1,513 Climbing New York TRACON
Fri 11:37:59 AM 40.3333 -74.2000 187° South 333 383 17,100 353 Climbing New York TRACON
Fri 11:39:15 AM 40.2319 -74.2211 189° South 354 407 17,100  Level New York Center
Fri 11:40:16 AM 40.1147 -74.2369 186° South 380 437 17,100 675 Level New York Center
Fri 11:41:55 AM 39.9586 -74.2922 195° South 385 443 18,900 1,763 Climbing Washington Center
Fri 11:42:56 AM 39.8761 -74.3747 218° Southwest 364 419 21,800 2,459 Climbing Washington Center
Fri 11:43:57 AM 39.7936 -74.4628 219° Southwest 381 438 23,900 2,319 Climbing Washington Center
Fri 11:44:55 AM 39.7153 -74.5639 225° Southwest 393 452 26,400 2,085 Climbing Washington Center
Fri 11:45:55 AM 39.6369 -74.6728 227° Southwest 398 458 28,000 1,850 Climbing Washington Center
Fri 11:46:55 AM 39.5544 -74.7786 225° Southwest 411 473 30,100 1,934 Climbing Washington Center
Fri 11:47:56 AM 39.4719 -74.8897 226° Southwest 417 480 31,900 1,377 Climbing Washington Center
Fri 11:48:57 AM 39.3850 -75.0036 225° Southwest 429 494 32,900 1,240 Climbing Washington Center
Fri 11:49:57 AM 39.2939 -75.1222 225° Southwest 448 516 34,400 1,780 Climbing Washington Center
Fri 11:50:55 AM 39.2025 -75.2353 224° Southwest 458 527 36,400 1,627 Climbing Washington Center
Fri 11:51:55 AM 39.0986 -75.3242 214° Southwest 458 527 37,600 793 Climbing Washington Center
Fri 11:52:56 AM 38.9631 -75.3619 192° South 463 533 38,000 198 Climbing Washington Center
Fri 11:53:56 AM 38.8256 -75.3944 190° South 477 549 38,000  Level Washington Center
Fri 11:54:57 AM 38.6858 -75.4294 191° South 495 570 38,000  Level Washington Center
Fri 11:55:55 AM 38.5483 -75.4669 192° South 505 581 38,000  Level Washington Center
Fri 11:56:55 AM 38.4067 -75.4964 189° South 517 595 38,000  Level Washington Center
Fri 11:57:56 AM 38.2669 -75.5414 194° South 517 595 38,000  Level Washington Center
Fri 11:58:56 AM 38.1378 -75.6050 201° Southwest 517 595 38,000 298 Level Washington Center
Fri 11:59:57 AM 38.0022 -75.6892 206° Southwest 495 570 38,600 706 Climbing Washington Center
Fri 12:00:55 PM 37.8769 -75.7550 203° Southwest 495 570 39,400 712 Climbing Washington Center
Fri 12:01:55 PM 37.7558 -75.8203 203° Southwest 495 570 40,000 446 Climbing Washington Center
Fri 12:02:56 PM 37.6328 -75.8856 203° Southwest 495 570 40,300 443 Climbing Washington Center
Fri 12:03:57 PM 37.5072 -75.9531 203° Southwest 495 570 40,900 756 Climbing Washington Center
Fri 12:04:55 PM 37.3861 -76.0178 203° Southwest 489 563 41,800 908 Climbing Washington Center
Fri 12:05:56 PM 37.2650 -76.0797 202° Southwest 484 557 42,700 590 Climbing Washington Center
Fri 12:06:57 PM 37.1500 -76.1417 203° Southwest 471 542 43,000 153 Climbing Washington Center
Fri 12:07:54 PM 37.0369 -76.1956 201° Southwest 471 542 43,000  Level Washington Center
Fri 12:08:56 PM 36.9178 -76.2569 202° Southwest 478 550 43,000  Level Washington Center
Fri 12:09:56 PM 36.7944 -76.3233 203° Southwest 478 550 43,000  Level Washington Center
Fri 12:10:57 PM 36.6750 -76.3894 204° Southwest 478 550 43,000  Level Washington Center
Fri 12:11:54 PM 36.5514 -76.4531 202° Southwest 478 550 43,000  Level Washington Center
Fri 12:12:56 PM 36.4300 -76.5161 203° Southwest 478 550 43,000  Level Washington Center
Fri 12:13:56 PM 36.3083 -76.5792 203° Southwest 478 550 43,000  Level Washington Center
Fri 12:14:57 PM 36.1889 -76.6394 202° Southwest 478 550 43,000  Level Washington Center
Fri 12:15:55 PM 36.0694 -76.6994 202° Southwest 478 550 43,000  Level Washington Center
Fri 12:16:55 PM 35.9500 -76.7569 201° Southwest 478 550 43,000  Level Washington Center
Fri 12:17:56 PM 35.8325 -76.8192 203° Southwest 473 544 43,000  Level Washington Center
Fri 12:18:56 PM 35.7131 -76.8814 203° Southwest 468 539 43,000  Level Washington Center
Fri 12:19:57 PM 35.5956 -76.9408 202° Southwest 462 532 43,000  Level Washington Center
Fri 12:20:57 PM 35.4781 -77.0000 202° Southwest 457 526 43,000  Level Washington Center
Fri 12:21:56 PM 35.3564 -77.0617 202° Southwest 462 532 43,000  Level Washington Center
Fri 12:22:56 PM 35.2367 -77.1231 203° Southwest 462 532 43,000  Level Washington Center
Fri 12:23:57 PM 35.1169 -77.1817 202° Southwest 462 532 43,000  Level Washington Center
Fri 12:24:55 PM 34.9950 -77.2400 201° Southwest 462 532 43,000  Level Washington Center
Fri 12:25:56 PM 34.8606 -77.3081 203° Southwest 474 545 43,000  Level Washington Center
Fri 12:26:57 PM 34.7367 -77.3714 203° Southwest 479 551 43,000  Level Washington Center
Fri 12:27:57 PM 34.6147 -77.4317 202° Southwest 479 551 43,000  Level Washington Center
Fri 12:28:54 PM 34.4783 -77.4714 194° South 484 557 43,000  Level Washington Center
Fri 12:29:55 PM 34.3425 -77.4936 188° South 496 571 43,000  Level Washington Center
Fri 12:30:56 PM 34.2044 -77.5181 188° South 502 578 43,000  Level Washington Center
Fri 12:32:18 PM 34.0092 -77.5494 188° South 532 612 43,000  Level Jacksonville Center
Fri 12:33:18 PM 33.8703 -77.5753 189° South 517 595 43,000  Level Jacksonville Center
Fri 12:34:18 PM 33.7294 -77.5989 188° South 519 597 43,000  Level Jacksonville Center
Fri 12:35:18 PM 33.6053 -77.6211 188° South 514 592 43,000  Level Jacksonville Center
Fri 12:36:18 PM 33.4642 -77.6419 187° South 514 592 43,000  Level Jacksonville Center
Fri 12:37:18 PM 33.3183 -77.6481 182° South 514 592 43,000  Level Jacksonville Center
Fri 12:38:18 PM 33.1725 -77.6542 182° South 519 597 43,000  Level Jacksonville Center
Fri 12:39:18 PM 33.0328 -77.6550 180° South 513 590 43,000  Level Jacksonville Center
Fri 12:40:18 PM 32.8850 -77.6611 182° South 513 590 43,000  Level Jacksonville Center
Fri 12:41:18 PM 32.7433 -77.6669 182° South 513 590 43,000  Level Jacksonville Center
Fri 12:42:18 PM 32.5994 -77.6728 182° South 513 590 43,000  Level Jacksonville Center
Fri 12:43:18 PM 32.4514 -77.6764 181° South 518 596 43,000  Level Jacksonville Center
Fri 12:44:18 PM 32.3056 -77.6797 181° South 518 596 43,000  Level Jacksonville Center
Fri 12:45:18 PM 32.1619 -77.6878 183° South 523 602 43,000  Level Jacksonville Center
Fri 12:46:18 PM 32.0158 -77.6914 181° South 523 602 43,000  Level Jacksonville Center
Fri 12:47:18 PM 31.8700 -77.6947 181° South 528 608 43,000  Level Jacksonville Center
Fri 12:48:18 PM 31.7244 -77.7078 184° South 528 608 43,000  Level Jacksonville Center
Fri 12:49:18 PM 31.5806 -77.7108 181° South 528 608 43,000  Level Jacksonville Center
Fri 12:50:18 PM 31.4344 -77.7142 181° South 528 608 43,000  Level Jacksonville Center
Fri 12:51:18 PM 31.2906 -77.7172 181° South 523 602 43,000  Level Jacksonville Center
Fri 12:52:18 PM 31.1467 -77.7203 181° South 523 602 43,000  Level Jacksonville Center
Fri 12:53:18 PM 31.0031 -77.7283 183° South 518 596 43,000  Level Jacksonville Center
Fri 12:54:18 PM 30.8589 -77.7289 180° South 518 596 43,000  Level Jacksonville Center
Fri 12:55:18 PM 30.7150 -77.7269 179° South 518 596 43,000  Level Jacksonville Center
Fri 12:56:18 PM 30.5731 -77.7297 181° South 512 589 43,000  Level Jacksonville Center
Fri 12:57:57 PM 30.3444 -77.7475 184° South 521 600 43,000  Level Miami Center
Fri 12:58:57 PM 30.1839 -77.7486 180° South 520 598 43,000  Level Miami Center
Fri 12:59:57 PM 30.0378 -77.7403 177° South 520 598 43,000  Level Miami Center
Fri 01:00:57 PM 29.8919 -77.7269 175° South 526 605 43,000  Level Miami Center
Fri 01:01:57 PM 29.7608 -77.7211 178° South 504 580 43,000  Level Miami Center
Fri 01:02:57 PM 29.6272 -77.7106 176° South 484 557 43,000  Level Miami Center
Fri 01:03:57 PM 29.5000 -77.7047 178° South 473 544 43,000  Level Miami Center
Fri 01:04:57 PM 29.3686 -77.6967 177° South 474 545 43,000  Level Miami Center
Fri 01:05:57 PM 29.2311 -77.6886 177° South 485 558 43,000 -650 Level Miami Center
Fri 01:06:57 PM 29.1017 -77.6828 178° South 474 545 41,700 -1,600 Descending Miami Center
Fri 01:07:57 PM 28.9683 -77.6747 177° South 485 558 39,800 -2,000 Descending Miami Center
Fri 01:08:57 PM 28.8286 -77.6642 176° South 491 565 37,700 -2,050 Descending Miami Center
Fri 01:09:57 PM 28.7033 -77.6586 178° South 480 552 35,700 -1,800 Descending Miami Center
Fri 01:10:57 PM 28.5678 -77.6506 177° South 478 550 34,100 -850 Descending Miami Center
Fri 01:11:57 PM 28.4383 -77.6425 177° South 478 550 34,000 -50 Descending Miami Center
Fri 01:12:57 PM 28.3047 -77.6344 177° South 478 550 34,000  Level Miami Center
Fri 01:13:57 PM 28.1775 -77.6267 177° South 478 550 34,000  Level Miami Center
Fri 01:14:57 PM 28.0375 -77.6208 178° South 478 550 34,000  Level Miami Center
Fri 01:15:57 PM 27.9081 -77.6131 177° South 485 558 34,000  Level Miami Center
Fri 01:16:57 PM 27.7703 -77.6028 176° South 485 558 34,000  Level Miami Center
Fri 01:17:57 PM 27.6325 -77.5972 178° South 488 562 34,000  Level Miami Center
Fri 01:18:57 PM 27.4928 -77.5844 175° South 496 571 34,000  Level Miami Center
Fri 01:19:57 PM 27.3569 -77.5792 178° South 496 571 34,000  Level Miami Center
Fri 01:20:57 PM 27.2192 -77.5689 176° South 496 571 34,000  Level Miami Center
Fri 01:21:57 PM 27.0814 -77.5656 179° South 496 571 34,000  Level Miami Center
Fri 01:22:57 PM 26.9581 -77.5672 181° South 496 571 34,000 -50 Level Miami Center
Fri 01:23:57 PM 26.8225 -77.5408 170° South 496 571 33,900 -950 Descending Miami Center
Fri 01:24:57 PM 26.6867 -77.5425 181° South 496 571 32,100 -1,950 Descending Miami Center
Fri 01:25:57 PM 26.5550 -77.5394 179° South 486 559 30,000 -2,050 Descending Miami Center
Fri 01:26:57 PM 26.4172 -77.5292 176° South 481 554 28,000 -2,000 Descending Miami Center
Fri 01:27:57 PM 26.2814 -77.5239 178° South 487 560 26,000 -1,700 Descending Miami Center
Fri 01:28:57 PM 26.1436 -77.5114 175° South 497 572 24,600 -1,000 Descending Miami Center
Fri 01:29:57 PM 26.0078 -77.5061 178° South 497 572 24,000 -1,000 Descending Miami Center
Fri 01:30:57 PM 25.8783 -77.4986 177° South 483 556 22,600 -1,650 Descending Miami Center
Fri 01:31:57 PM 25.7803 -77.4611 161° South 442 509 20,700 -1,900 Descending Miami Center
Fri 01:32:57 PM 25.7325 -77.3433 114° Southeast 372 428 18,800 -1,650 Descending Miami Center
Fri 01:33:57 PM 25.6597 -77.2483 130° Southeast 340 391 17,400 -1,550 Descending Miami Center
Fri 01:34:57 PM 25.5739 -77.2689 192° South 295 339 15,700 -1,800 Descending Miami Center
Fri 01:35:57 PM 25.4903 -77.2961 196° South 295 339 13,800 -2,250 Descending Miami Center
Fri 01:36:57 PM 25.4336 -77.3536 223° Southwest 279 321 11,200 -2,600 Descending Miami Center

Login

Don't have an account? Register now (free) for customized features, flight alerts, and more!